RYR3LQ GMTT-LPPR
Flight info
| Callsign | RYR3LQ |
|---|---|
| Flight time | 1h 1m |
| Altitude | 18000 |
| Route | NOLRO DCT ADKIM Z53 VJF/N0443F380 N10 SVL M744 ROSAL DCT LASIB DCT ABLEG |
| Aircraft | B38M/M-SDE1FGHILORVWXY/HB1 |
Departure
| Time | 2026-04-25 15:12 |
|---|---|
| Airport | Tangier Ibn Battuta Airport (GMTT) |
Arrival
| Time | 2026-04-25 16:14 |
|---|---|
| Airport | Francisco de Sá Carneiro Airport (LPPR) |
| Time | Latitude | Longitude | Altitude | Speed | Heading |
|---|---|---|---|---|---|
| 2026-04-25 14:37 | 35.72529 | -5.91137 | 41 ft | 0 kts | 356° |
| 2026-04-25 14:37 | 35.72530 | -5.91137 | 62 ft | 0 kts | 356° |
| 2026-04-25 15:01 | 35.72524 | -5.91136 | 56 ft | 4 kts | 355° |
| 2026-04-25 15:01 | 35.72497 | -5.91131 | 61 ft | 4 kts | 345° |
| 2026-04-25 15:01 | 35.72472 | -5.91120 | 56 ft | 4 kts | 328° |
| 2026-04-25 15:02 | 35.72454 | -5.91098 | 53 ft | 4 kts | 285° |
| 2026-04-25 15:02 | 35.72453 | -5.91088 | 60 ft | 0 kts | 266° |
| 2026-04-25 15:05 | 35.72452 | -5.91112 | 62 ft | 5 kts | 266° |
| 2026-04-25 15:05 | 35.72448 | -5.91177 | 62 ft | 10 kts | 266° |
| 2026-04-25 15:06 | 35.72433 | -5.91421 | 60 ft | 18 kts | 264° |
| 2026-04-25 15:06 | 35.72432 | -5.91592 | 60 ft | 21 kts | 291° |
| 2026-04-25 15:06 | 35.72547 | -5.91690 | 62 ft | 22 kts | 355° |
| 2026-04-25 15:06 | 35.72709 | -5.91705 | 62 ft | 24 kts | 355° |
| 2026-04-25 15:07 | 35.72862 | -5.91717 | 62 ft | 21 kts | 356° |
| 2026-04-25 15:07 | 35.72951 | -5.91773 | 62 ft | 10 kts | 277° |
| 2026-04-25 15:07 | 35.72960 | -5.91870 | 55 ft | 13 kts | 275° |
| 2026-04-25 15:07 | 35.72969 | -5.91990 | 62 ft | 16 kts | 275° |
| 2026-04-25 15:08 | 35.72980 | -5.92134 | 59 ft | 18 kts | 275° |
| 2026-04-25 15:08 | 35.72992 | -5.92301 | 62 ft | 21 kts | 275° |
| 2026-04-25 15:08 | 35.73013 | -5.92486 | 59 ft | 23 kts | 279° |
| 2026-04-25 15:08 | 35.73037 | -5.92686 | 62 ft | 19 kts | 277° |
| 2026-04-25 15:09 | 35.73055 | -5.92858 | 62 ft | 21 kts | 277° |
| 2026-04-25 15:09 | 35.73071 | -5.93050 | 62 ft | 23 kts | 274° |
| 2026-04-25 15:09 | 35.73112 | -5.93489 | 59 ft | 28 kts | 277° |
| 2026-04-25 15:10 | 35.73135 | -5.93735 | 60 ft | 30 kts | 275° |
| 2026-04-25 15:10 | 35.73158 | -5.93977 | 62 ft | 26 kts | 284° |
| 2026-04-25 15:10 | 35.73333 | -5.93900 | 60 ft | 17 kts | 97° |
| 2026-04-25 15:11 | 35.73318 | -5.93745 | 63 ft | 20 kts | 96° |
| 2026-04-25 15:11 | 35.73302 | -5.93566 | 55 ft | 22 kts | 96° |
| 2026-04-25 15:11 | 35.73285 | -5.93373 | 57 ft | 24 kts | 97° |
| 2026-04-25 15:12 | 35.73122 | -5.91846 | 246 ft | 156 kts | 95° |
| 2026-04-25 15:12 | 35.72951 | -5.90406 | 1045 ft | 179 kts | 94° |
| 2026-04-25 15:12 | 35.73016 | -5.88908 | 1928 ft | 182 kts | 70° |
| 2026-04-25 15:12 | 35.73234 | -5.88436 | 2159 ft | 192 kts | 55° |
| 2026-04-25 15:13 | 35.75338 | -5.86902 | 3185 ft | 239 kts | 13° |
| 2026-04-25 15:13 | 35.78697 | -5.87520 | 5201 ft | 261 kts | 354° |
| 2026-04-25 15:13 | 35.80535 | -5.87907 | 6117 ft | 270 kts | 353° |
| 2026-04-25 15:14 | 35.82396 | -5.88311 | 7207 ft | 273 kts | 352° |
| 2026-04-25 15:14 | 35.84260 | -5.88718 | 8239 ft | 276 kts | 352° |
| 2026-04-25 15:14 | 35.86165 | -5.89137 | 9282 ft | 280 kts | 352° |
| 2026-04-25 15:14 | 35.88095 | -5.89563 | 10250 ft | 285 kts | 352° |
| 2026-04-25 15:15 | 35.90108 | -5.90005 | 10831 ft | 303 kts | 352° |
| 2026-04-25 15:15 | 35.92236 | -5.90469 | 11463 ft | 317 kts | 352° |
| 2026-04-25 15:15 | 35.94447 | -5.90954 | 12256 ft | 324 kts | 351° |
| 2026-04-25 15:15 | 35.96654 | -5.91444 | 13205 ft | 327 kts | 352° |
| 2026-04-25 15:16 | 35.98914 | -5.91946 | 14077 ft | 332 kts | 351° |
| 2026-04-25 15:16 | 36.01202 | -5.92456 | 14926 ft | 335 kts | 351° |
| 2026-04-25 15:16 | 36.05833 | -5.93491 | 16634 ft | 340 kts | 351° |
| 2026-04-25 15:17 | 36.10335 | -5.95380 | 18196 ft | 351 kts | 335° |
| 2026-04-25 15:17 | 36.12546 | -5.96707 | 18850 ft | 355 kts | 336° |
| 2026-04-25 15:17 | 36.14788 | -5.98033 | 19533 ft | 357 kts | 336° |
| 2026-04-25 15:18 | 36.17045 | -5.99358 | 20203 ft | 360 kts | 336° |
| 2026-04-25 15:18 | 36.21622 | -6.02030 | 21499 ft | 367 kts | 336° |
| 2026-04-25 15:18 | 36.23941 | -6.03383 | 22161 ft | 369 kts | 336° |
| 2026-04-25 15:19 | 36.26278 | -6.04747 | 22807 ft | 373 kts | 336° |
| 2026-04-25 15:19 | 36.27043 | -6.05194 | 23015 ft | 374 kts | 336° |
| 2026-04-25 15:19 | 36.30994 | -6.07503 | 23985 ft | 379 kts | 335° |
| 2026-04-25 15:19 | 36.33383 | -6.08901 | 24485 ft | 381 kts | 335° |
| 2026-04-25 15:20 | 36.34978 | -6.09834 | 24820 ft | 383 kts | 335° |
| 2026-04-25 15:20 | 36.37402 | -6.11254 | 25332 ft | 386 kts | 335° |
| 2026-04-25 15:20 | 36.39840 | -6.12682 | 25823 ft | 388 kts | 335° |
| 2026-04-25 15:20 | 36.43105 | -6.14597 | 26451 ft | 393 kts | 335° |
| 2026-04-25 15:21 | 36.44746 | -6.15559 | 26786 ft | 394 kts | 335° |
| 2026-04-25 15:21 | 36.47246 | -6.17028 | 27255 ft | 397 kts | 335° |
| 2026-04-25 15:21 | 36.50573 | -6.18983 | 27853 ft | 401 kts | 335° |
| 2026-04-25 15:21 | 36.52281 | -6.19987 | 28156 ft | 403 kts | 335° |
| 2026-04-25 15:22 | 36.54828 | -6.21487 | 28600 ft | 405 kts | 335° |
| 2026-04-25 15:22 | 36.57351 | -6.22973 | 29025 ft | 408 kts | 335° |
| 2026-04-25 15:22 | 36.59926 | -6.24490 | 29449 ft | 411 kts | 335° |
| 2026-04-25 15:22 | 36.62521 | -6.26021 | 29913 ft | 413 kts | 335° |
| 2026-04-25 15:23 | 36.65121 | -6.27556 | 30435 ft | 411 kts | 335° |
| 2026-04-25 15:23 | 36.67708 | -6.29085 | 30960 ft | 409 kts | 335° |
| 2026-04-25 15:23 | 36.70234 | -6.30579 | 31491 ft | 406 kts | 335° |
| 2026-04-25 15:23 | 36.72785 | -6.32088 | 31942 ft | 405 kts | 335° |
| 2026-04-25 15:24 | 36.75357 | -6.33609 | 32063 ft | 411 kts | 335° |
| 2026-04-25 15:24 | 36.77961 | -6.35152 | 32033 ft | 416 kts | 335° |
| 2026-04-25 15:24 | 36.82311 | -6.37732 | 32042 ft | 416 kts | 335° |
| 2026-04-25 15:25 | 36.88424 | -6.41362 | 32035 ft | 416 kts | 335° |
| 2026-04-25 15:25 | 36.93622 | -6.44455 | 32041 ft | 416 kts | 335° |
| 2026-04-25 15:26 | 36.98873 | -6.47584 | 32028 ft | 416 kts | 335° |
| 2026-04-25 15:26 | 37.04107 | -6.50707 | 32028 ft | 417 kts | 335° |
| 2026-04-25 15:27 | 37.09319 | -6.53823 | 32029 ft | 417 kts | 335° |
| 2026-04-25 15:28 | 37.17174 | -6.58528 | 32030 ft | 417 kts | 335° |
| 2026-04-25 15:28 | 37.22427 | -6.61679 | 32031 ft | 417 kts | 335° |
| 2026-04-25 15:29 | 37.27646 | -6.64815 | 32031 ft | 417 kts | 335° |
| 2026-04-25 15:29 | 37.32888 | -6.67970 | 32027 ft | 417 kts | 335° |
| 2026-04-25 15:30 | 37.38117 | -6.71122 | 32025 ft | 417 kts | 335° |
| 2026-04-25 15:30 | 37.43357 | -6.74286 | 32025 ft | 417 kts | 335° |
| 2026-04-25 15:31 | 37.48571 | -6.77439 | 32026 ft | 417 kts | 335° |
| 2026-04-25 15:31 | 37.53814 | -6.80614 | 32024 ft | 417 kts | 335° |
| 2026-04-25 15:32 | 37.59055 | -6.83793 | 32025 ft | 417 kts | 335° |
| 2026-04-25 15:32 | 37.64256 | -6.86952 | 32025 ft | 417 kts | 335° |
| 2026-04-25 15:33 | 37.72120 | -6.91740 | 32021 ft | 417 kts | 335° |
| 2026-04-25 15:33 | 37.77321 | -6.94911 | 32029 ft | 417 kts | 335° |
| 2026-04-25 15:34 | 37.82548 | -6.98105 | 32023 ft | 417 kts | 335° |
| 2026-04-25 15:34 | 37.86903 | -7.00769 | 32027 ft | 417 kts | 335° |
| 2026-04-25 15:35 | 37.95613 | -7.06109 | 32022 ft | 417 kts | 335° |
| 2026-04-25 15:36 | 38.02466 | -7.12687 | 32000 ft | 415 kts | 327° |
| 2026-04-25 15:36 | 38.05080 | -7.14160 | 32014 ft | 412 kts | 347° |
| 2026-04-25 15:36 | 38.07900 | -7.14877 | 32007 ft | 414 kts | 345° |
| 2026-04-25 15:37 | 38.13390 | -7.17165 | 32015 ft | 415 kts | 341° |
| 2026-04-25 15:37 | 38.18796 | -7.19626 | 32014 ft | 415 kts | 340° |
| 2026-04-25 15:38 | 38.24243 | -7.22169 | 32015 ft | 415 kts | 340° |
| 2026-04-25 15:38 | 38.29631 | -7.24699 | 32006 ft | 415 kts | 340° |
| 2026-04-25 15:39 | 38.35054 | -7.27252 | 32009 ft | 415 kts | 340° |
| 2026-04-25 15:39 | 38.40469 | -7.29803 | 32003 ft | 414 kts | 340° |
| 2026-04-25 15:40 | 38.44053 | -7.31495 | 32005 ft | 414 kts | 340° |
| 2026-04-25 15:40 | 38.51263 | -7.34904 | 32003 ft | 414 kts | 340° |
| 2026-04-25 15:41 | 38.56632 | -7.37447 | 32004 ft | 413 kts | 340° |
| 2026-04-25 15:41 | 38.62044 | -7.40014 | 32003 ft | 413 kts | 340° |
| 2026-04-25 15:42 | 38.67413 | -7.42566 | 32004 ft | 413 kts | 340° |
| 2026-04-25 15:42 | 38.72818 | -7.45138 | 32008 ft | 413 kts | 340° |
| 2026-04-25 15:43 | 38.78168 | -7.47688 | 32023 ft | 413 kts | 340° |
| 2026-04-25 15:43 | 38.83558 | -7.50261 | 32007 ft | 413 kts | 340° |
| 2026-04-25 15:44 | 38.88954 | -7.52842 | 32001 ft | 412 kts | 340° |
| 2026-04-25 15:44 | 38.94303 | -7.55405 | 31997 ft | 412 kts | 340° |
| 2026-04-25 15:45 | 38.99694 | -7.57990 | 32001 ft | 412 kts | 340° |
| 2026-04-25 15:45 | 39.03255 | -7.59701 | 32013 ft | 411 kts | 340° |
| 2026-04-25 15:46 | 39.10407 | -7.63143 | 31998 ft | 412 kts | 340° |
| 2026-04-25 15:46 | 39.15777 | -7.65732 | 31998 ft | 412 kts | 340° |
| 2026-04-25 15:47 | 39.21143 | -7.68324 | 32016 ft | 412 kts | 340° |
| 2026-04-25 15:47 | 39.26504 | -7.70917 | 32014 ft | 412 kts | 340° |
| 2026-04-25 15:48 | 39.31845 | -7.73504 | 32007 ft | 412 kts | 340° |
| 2026-04-25 15:48 | 39.37210 | -7.76108 | 32005 ft | 412 kts | 340° |
| 2026-04-25 15:49 | 39.42591 | -7.78724 | 32012 ft | 410 kts | 340° |
| 2026-04-25 15:49 | 39.45189 | -7.79986 | 32018 ft | 393 kts | 340° |
| 2026-04-25 15:49 | 39.47704 | -7.81208 | 32016 ft | 378 kts | 340° |
| 2026-04-25 15:50 | 39.49318 | -7.81994 | 31894 ft | 371 kts | 340° |
| 2026-04-25 15:50 | 39.52537 | -7.83563 | 31333 ft | 367 kts | 340° |
| 2026-04-25 15:50 | 39.54926 | -7.84729 | 30849 ft | 366 kts | 340° |
| 2026-04-25 15:50 | 39.57274 | -7.85876 | 30408 ft | 364 kts | 340° |
| 2026-04-25 15:51 | 39.59645 | -7.87036 | 29975 ft | 362 kts | 340° |
| 2026-04-25 15:51 | 39.60444 | -7.87426 | 29800 ft | 362 kts | 340° |
| 2026-04-25 15:51 | 39.64356 | -7.89341 | 29051 ft | 358 kts | 340° |
| 2026-04-25 15:51 | 39.66673 | -7.90476 | 28631 ft | 355 kts | 340° |
| 2026-04-25 15:52 | 39.68971 | -7.91603 | 28238 ft | 352 kts | 340° |
| 2026-04-25 15:52 | 39.71228 | -7.92710 | 27847 ft | 349 kts | 340° |
| 2026-04-25 15:52 | 39.73496 | -7.93823 | 27457 ft | 347 kts | 340° |
| 2026-04-25 15:52 | 39.75747 | -7.94929 | 27067 ft | 345 kts | 341° |
| 2026-04-25 15:53 | 39.77981 | -7.96027 | 26689 ft | 343 kts | 341° |
| 2026-04-25 15:53 | 39.80215 | -7.97127 | 26304 ft | 341 kts | 341° |
| 2026-04-25 15:53 | 39.82428 | -7.98217 | 25935 ft | 339 kts | 341° |
| 2026-04-25 15:53 | 39.84607 | -7.99290 | 25573 ft | 338 kts | 341° |
| 2026-04-25 15:54 | 39.86804 | -8.00373 | 25206 ft | 337 kts | 341° |
| 2026-04-25 15:54 | 39.88992 | -8.01453 | 24837 ft | 336 kts | 341° |
| 2026-04-25 15:54 | 39.91175 | -8.02531 | 24481 ft | 334 kts | 341° |
| 2026-04-25 15:54 | 39.93346 | -8.03604 | 24122 ft | 333 kts | 341° |
| 2026-04-25 15:55 | 39.95513 | -8.04675 | 23765 ft | 333 kts | 341° |
| 2026-04-25 15:55 | 39.97681 | -8.05748 | 23358 ft | 332 kts | 341° |
| 2026-04-25 15:55 | 39.99818 | -8.06806 | 22971 ft | 330 kts | 341° |
| 2026-04-25 15:55 | 40.01967 | -8.07871 | 22613 ft | 328 kts | 341° |
| 2026-04-25 15:56 | 40.04092 | -8.08925 | 22260 ft | 326 kts | 341° |
| 2026-04-25 15:56 | 40.06208 | -8.09974 | 21909 ft | 324 kts | 341° |
| 2026-04-25 15:56 | 40.08315 | -8.11020 | 21568 ft | 322 kts | 341° |
| 2026-04-25 15:56 | 40.10405 | -8.12059 | 21225 ft | 320 kts | 341° |
| 2026-04-25 15:57 | 40.12481 | -8.13090 | 20887 ft | 318 kts | 341° |
| 2026-04-25 15:57 | 40.14548 | -8.14119 | 20547 ft | 316 kts | 341° |
| 2026-04-25 15:57 | 40.16597 | -8.15139 | 20221 ft | 315 kts | 341° |
| 2026-04-25 15:57 | 40.18667 | -8.16169 | 19882 ft | 320 kts | 341° |
| 2026-04-25 15:58 | 40.20739 | -8.17202 | 19540 ft | 324 kts | 341° |
| 2026-04-25 15:58 | 40.22844 | -8.18253 | 19204 ft | 324 kts | 341° |
| 2026-04-25 15:58 | 40.24957 | -8.19308 | 18864 ft | 324 kts | 340° |
| 2026-04-25 15:58 | 40.27059 | -8.20357 | 18528 ft | 322 kts | 340° |
| 2026-04-25 15:59 | 40.29157 | -8.21405 | 18158 ft | 321 kts | 340° |
| 2026-04-25 15:59 | 40.31242 | -8.22448 | 17796 ft | 319 kts | 341° |
| 2026-04-25 15:59 | 40.33310 | -8.23482 | 17447 ft | 317 kts | 341° |
| 2026-04-25 15:59 | 40.35366 | -8.24512 | 17107 ft | 315 kts | 340° |
| 2026-04-25 16:00 | 40.37383 | -8.25523 | 16781 ft | 313 kts | 340° |
| 2026-04-25 16:00 | 40.38074 | -8.25869 | 16670 ft | 312 kts | 341° |
| 2026-04-25 16:00 | 40.41441 | -8.27559 | 16128 ft | 309 kts | 341° |
| 2026-04-25 16:00 | 40.43454 | -8.28569 | 15803 ft | 307 kts | 341° |
| 2026-04-25 16:01 | 40.45422 | -8.29557 | 15481 ft | 305 kts | 341° |
| 2026-04-25 16:01 | 40.47408 | -8.30556 | 15178 ft | 303 kts | 341° |
| 2026-04-25 16:01 | 40.49373 | -8.31544 | 14845 ft | 302 kts | 341° |
| 2026-04-25 16:01 | 40.51332 | -8.32530 | 14528 ft | 300 kts | 341° |
| 2026-04-25 16:02 | 40.53284 | -8.33514 | 14209 ft | 299 kts | 341° |
| 2026-04-25 16:02 | 40.55221 | -8.34489 | 13897 ft | 297 kts | 341° |
| 2026-04-25 16:02 | 40.57126 | -8.35449 | 13558 ft | 296 kts | 341° |
| 2026-04-25 16:02 | 40.59044 | -8.36418 | 13226 ft | 295 kts | 341° |
| 2026-04-25 16:03 | 40.60956 | -8.37382 | 12893 ft | 293 kts | 341° |
| 2026-04-25 16:03 | 40.62865 | -8.38347 | 12578 ft | 291 kts | 341° |
| 2026-04-25 16:03 | 40.64724 | -8.39286 | 12267 ft | 289 kts | 341° |
| 2026-04-25 16:03 | 40.66591 | -8.40231 | 11970 ft | 286 kts | 341° |
| 2026-04-25 16:04 | 40.68450 | -8.41172 | 11673 ft | 284 kts | 341° |
| 2026-04-25 16:04 | 40.70294 | -8.42107 | 11370 ft | 283 kts | 341° |
| 2026-04-25 16:04 | 40.72124 | -8.43045 | 11070 ft | 282 kts | 339° |
| 2026-04-25 16:04 | 40.73877 | -8.44231 | 10615 ft | 291 kts | 334° |
| 2026-04-25 16:05 | 40.75677 | -8.45503 | 10181 ft | 295 kts | 334° |
| 2026-04-25 16:05 | 40.77480 | -8.46761 | 10039 ft | 289 kts | 334° |
| 2026-04-25 16:05 | 40.79727 | -8.48318 | 10060 ft | 288 kts | 335° |
| 2026-04-25 16:06 | 40.80165 | -8.48619 | 10059 ft | 289 kts | 335° |
| 2026-04-25 16:06 | 40.81278 | -8.49383 | 10038 ft | 288 kts | 335° |
| 2026-04-25 16:06 | 40.83639 | -8.51001 | 10049 ft | 289 kts | 335° |
| 2026-04-25 16:06 | 40.85430 | -8.52228 | 9888 ft | 291 kts | 335° |
| 2026-04-25 16:07 | 40.87218 | -8.53455 | 9552 ft | 291 kts | 334° |
| 2026-04-25 16:07 | 40.87831 | -8.53876 | 9464 ft | 290 kts | 334° |
| 2026-04-25 16:07 | 40.90074 | -8.55416 | 8917 ft | 293 kts | 334° |
| 2026-04-25 16:07 | 40.91881 | -8.56657 | 8390 ft | 290 kts | 334° |
| 2026-04-25 16:08 | 40.93669 | -8.57895 | 7799 ft | 291 kts | 334° |
| 2026-04-25 16:08 | 40.95472 | -8.59149 | 7152 ft | 293 kts | 334° |
| 2026-04-25 16:08 | 40.97279 | -8.60403 | 6526 ft | 294 kts | 334° |
| 2026-04-25 16:08 | 40.99111 | -8.61411 | 5870 ft | 292 kts | 348° |
| 2026-04-25 16:09 | 41.01122 | -8.61921 | 5253 ft | 290 kts | 350° |
| 2026-04-25 16:09 | 41.03075 | -8.62433 | 4611 ft | 277 kts | 349° |
| 2026-04-25 16:09 | 41.04899 | -8.62917 | 4199 ft | 255 kts | 349° |
| 2026-04-25 16:09 | 41.06620 | -8.63371 | 4147 ft | 251 kts | 349° |
| 2026-04-25 16:10 | 41.08348 | -8.63824 | 3768 ft | 255 kts | 349° |
| 2026-04-25 16:10 | 41.10064 | -8.64271 | 3312 ft | 244 kts | 348° |
| 2026-04-25 16:10 | 41.11692 | -8.64694 | 2794 ft | 233 kts | 347° |
| 2026-04-25 16:10 | 41.13256 | -8.65100 | 2236 ft | 225 kts | 347° |
| 2026-04-25 16:11 | 41.14759 | -8.65493 | 1813 ft | 212 kts | 347° |
| 2026-04-25 16:11 | 41.16125 | -8.65854 | 1688 ft | 194 kts | 347° |
| 2026-04-25 16:11 | 41.17382 | -8.66179 | 1508 ft | 173 kts | 347° |
| 2026-04-25 16:11 | 41.18478 | -8.66469 | 1270 ft | 149 kts | 347° |
| 2026-04-25 16:12 | 41.19436 | -8.66721 | 1107 ft | 135 kts | 348° |
| 2026-04-25 16:12 | 41.20353 | -8.66958 | 927 ft | 133 kts | 347° |
| 2026-04-25 16:12 | 41.21254 | -8.67188 | 663 ft | 129 kts | 346° |
| 2026-04-25 16:12 | 41.21841 | -8.67345 | 594 ft | 130 kts | 345° |
| 2026-04-25 16:13 | 41.23018 | -8.67654 | 319 ft | 128 kts | 345° |
| 2026-04-25 16:13 | 41.23858 | -8.67880 | 225 ft | 112 kts | 346° |
| 2026-04-25 16:13 | 41.24439 | -8.68033 | 211 ft | 53 kts | 356° |
| 2026-04-25 16:13 | 41.24801 | -8.68130 | 198 ft | 52 kts | 351° |
| 2026-04-25 16:14 | 41.25067 | -8.68180 | 181 ft | 29 kts | 8° |
| 2026-04-25 16:14 | 41.25250 | -8.68120 | 180 ft | 23 kts | 18° |
| 2026-04-25 16:14 | 41.25283 | -8.68025 | 179 ft | 9 kts | 129° |
| 2026-04-25 16:14 | 41.25253 | -8.68007 | 181 ft | 3 kts | 172° |
| 2026-04-25 16:15 | 41.25236 | -8.68004 | 182 ft | 2 kts | 171° |
| 2026-04-25 16:15 | 41.25220 | -8.68001 | 183 ft | 2 kts | 171° |
| 2026-04-25 16:15 | 41.25202 | -8.67997 | 184 ft | 3 kts | 171° |
| 2026-04-25 16:15 | 41.25181 | -8.67992 | 193 ft | 4 kts | 170° |
| 2026-04-25 16:16 | 41.25151 | -8.67985 | 191 ft | 5 kts | 169° |
| 2026-04-25 16:16 | 41.25111 | -8.67975 | 187 ft | 7 kts | 169° |
| 2026-04-25 16:16 | 41.25060 | -8.67961 | 188 ft | 8 kts | 171° |
| 2026-04-25 16:16 | 41.24997 | -8.67947 | 200 ft | 9 kts | 169° |
| 2026-04-25 16:17 | 41.24930 | -8.67927 | 199 ft | 12 kts | 165° |
| 2026-04-25 16:17 | 41.24834 | -8.67878 | 207 ft | 16 kts | 152° |
| 2026-04-25 16:17 | 41.24733 | -8.67822 | 205 ft | 16 kts | 165° |
| 2026-04-25 16:17 | 41.24621 | -8.67790 | 216 ft | 18 kts | 167° |
| 2026-04-25 16:18 | 41.24485 | -8.67753 | 218 ft | 22 kts | 168° |
| 2026-04-25 16:18 | 41.24436 | -8.67740 | 222 ft | 22 kts | 170° |
| 2026-04-25 16:18 | 41.24220 | -8.67582 | 238 ft | 15 kts | 154° |
| 2026-04-25 16:18 | 41.24100 | -8.67546 | 239 ft | 21 kts | 169° |
| 2026-04-25 16:19 | 41.23931 | -8.67506 | 239 ft | 28 kts | 170° |
| 2026-04-25 16:19 | 41.23729 | -8.67450 | 239 ft | 27 kts | 169° |
| 2026-04-25 16:19 | 41.23546 | -8.67404 | 239 ft | 25 kts | 169° |
| 2026-04-25 16:20 | 41.23364 | -8.67286 | 239 ft | 11 kts | 82° |
| 2026-04-25 16:20 | 41.23378 | -8.67249 | 239 ft | 4 kts | 48° |
| 2026-04-25 16:20 | 41.23404 | -8.67211 | 239 ft | 1 kts | 48° |
| 2026-04-25 16:21 | 41.23408 | -8.67205 | 239 ft | 1 kts | 48° |
| 2026-04-25 16:21 | 41.23412 | -8.67199 | 239 ft | 0 kts | 49° |